createdAt,value
2022-10-24T00:00:49.038Z,100654.00
2022-10-24T00:05:52.854Z,100667.34
2022-10-24T00:10:55.001Z,100662.88
2022-10-24T00:15:56.646Z,100647.50
2022-10-24T00:21:00.113Z,100642.22
2022-10-24T00:26:02.229Z,100642.28
2022-10-24T00:31:04.604Z,100645.06
2022-10-24T00:36:12.755Z,100638.13
2022-10-24T00:41:16.320Z,100653.44
2022-10-24T00:46:20.094Z,100663.94
2022-10-24T00:51:26.016Z,100656.88
2022-10-24T00:56:31.258Z,100657.72
2022-10-24T01:01:33.745Z,100661.25
2022-10-24T01:06:46.828Z,100665.78
2022-10-24T01:12:00.127Z,100640.97
2022-10-24T01:17:11.450Z,100636.63
2022-10-24T01:22:19.272Z,100619.94
2022-10-24T01:27:37.871Z,100621.91
2022-10-24T01:32:48.012Z,100627.91
2022-10-24T01:37:58.579Z,100623.50
2022-10-24T01:43:06.098Z,100612.94
2022-10-24T01:48:13.805Z,100602.56
2022-10-24T01:53:17.459Z,100594.69
2022-10-24T01:58:21.137Z,100578.09
2022-10-24T02:03:30.866Z,100579.06
2022-10-24T02:08:37.749Z,100569.47
2022-10-24T02:13:48.198Z,100575.06
2022-10-24T02:18:54.932Z,100570.41
2022-10-24T02:24:01.795Z,100571.56
2022-10-24T02:29:09.232Z,100574.31
2022-10-24T02:34:13.767Z,100558.44
2022-10-24T02:39:17.802Z,100561.91
2022-10-24T02:44:20.131Z,100573.97
2022-10-24T02:49:23.132Z,100558.91
2022-10-24T02:54:25.174Z,100558.97
2022-10-24T02:59:27.195Z,100562.56
2022-10-24T03:04:30.520Z,100560.72
2022-10-24T03:09:32.558Z,100572.47
2022-10-24T03:14:34.494Z,100564.78
2022-10-24T03:19:38.138Z,100573.91
2022-10-24T03:24:44.321Z,100569.59
2022-10-24T03:29:46.354Z,100569.75
2022-10-24T03:34:50.010Z,100570.78
2022-10-24T03:39:51.959Z,100560.22
2022-10-24T03:44:53.663Z,100558.44
2022-10-24T03:49:56.818Z,100568.25
2022-10-24T03:54:59.030Z,100572.72
2022-10-24T04:00:00.743Z,100570.13
2022-10-24T04:05:05.268Z,100557.63
2022-10-24T04:10:08.099Z,100570.75
2022-10-24T04:15:10.821Z,100563.84
2022-10-24T04:20:13.981Z,100557.78
2022-10-24T04:25:16.995Z,100569.47
2022-10-24T04:30:18.728Z,100561.72
2022-10-24T04:35:22.073Z,100575.06
2022-10-24T04:40:24.151Z,100567.94
2022-10-24T04:45:26.291Z,100576.75
2022-10-24T04:50:29.618Z,100575.09
2022-10-24T04:55:31.995Z,100584.72
2022-10-24T05:00:37.172Z,100599.75
2022-10-24T05:05:40.374Z,100609.34
2022-10-24T05:10:42.842Z,100595.13
2022-10-24T05:15:44.906Z,100593.47
2022-10-24T05:20:48.255Z,100588.09
2022-10-24T05:25:50.336Z,100567.47
2022-10-24T05:30:52.011Z,100574.69
2022-10-24T05:35:55.734Z,100562.34
2022-10-24T05:40:57.784Z,100566.97
2022-10-24T05:45:59.892Z,100564.53
2022-10-24T05:51:03.080Z,100569.69
2022-10-24T05:56:05.661Z,100574.09
2022-10-24T06:01:07.717Z,100553.69
2022-10-24T06:06:11.175Z,100551.03
2022-10-24T06:11:14.166Z,100549.31
2022-10-24T06:16:16.279Z,100563.16
2022-10-24T06:21:19.868Z,100562.09
2022-10-24T06:26:24.013Z,100550.53
2022-10-24T06:31:26.609Z,100560.00
2022-10-24T06:36:31.582Z,100558.75
2022-10-24T06:41:33.832Z,100565.63
2022-10-24T06:46:35.719Z,100566.13
2022-10-24T06:51:39.146Z,100573.88
2022-10-24T06:56:40.867Z,100595.84
2022-10-24T07:01:43.183Z,100594.00
2022-10-24T07:06:46.448Z,100591.91
2022-10-24T07:11:48.112Z,100607.19
2022-10-24T07:16:50.073Z,100590.38
2022-10-24T07:21:53.644Z,100592.22
2022-10-24T07:26:55.585Z,100590.78
2022-10-24T07:31:57.717Z,100614.94
2022-10-24T07:37:01.137Z,100619.84
2022-10-24T07:42:03.230Z,100619.03
2022-10-24T07:47:05.348Z,100628.63
2022-10-24T07:52:08.354Z,100624.72
2022-10-24T07:57:10.043Z,100622.59
2022-10-24T08:02:12.452Z,100612.88
2022-10-24T08:07:15.575Z,100611.00
2022-10-24T08:12:18.385Z,100616.72
2022-10-24T08:17:20.224Z,100616.81
2022-10-24T08:22:23.756Z,100624.53
2022-10-24T08:27:25.460Z,100608.66
2022-10-24T08:32:27.516Z,100618.56
2022-10-24T08:37:30.695Z,100612.00
2022-10-24T08:42:34.097Z,100608.22
2022-10-24T08:52:48.637Z,100606.75
2022-10-24T08:57:53.669Z,100592.97
2022-10-24T09:03:01.774Z,100600.25
2022-10-24T09:08:20.296Z,100604.22
2022-10-24T09:13:27.565Z,100597.72
2022-10-24T09:18:34.321Z,100600.69
2022-10-24T09:23:38.308Z,100598.53
2022-10-24T09:28:40.510Z,100608.00
2022-10-24T09:33:44.149Z,100609.28
2022-10-24T09:38:48.639Z,100607.63
2022-10-24T09:43:53.463Z,100609.72
2022-10-24T09:48:58.589Z,100605.78
2022-10-24T09:54:06.530Z,100605.44
2022-10-24T09:59:26.862Z,100605.81
2022-10-24T10:04:28.804Z,100607.78
2022-10-24T10:09:32.015Z,100593.50
2022-10-24T10:14:41.462Z,100592.75
2022-10-24T10:19:47.495Z,100594.44
2022-10-24T10:24:50.898Z,100605.25
2022-10-24T10:30:08.796Z,100599.47
2022-10-24T10:35:19.669Z,100605.09
2022-10-24T10:40:32.414Z,100602.41
2022-10-24T10:45:41.567Z,100595.25
2022-10-24T10:50:49.817Z,100588.78
2022-10-24T10:56:00.647Z,100578.56
2022-10-24T11:01:11.504Z,100582.69
2022-10-24T11:06:31.436Z,100587.03
2022-10-24T11:11:38.817Z,100592.47
2022-10-24T11:16:41.817Z,100586.13
2022-10-24T11:21:44.773Z,100588.13
2022-10-24T11:26:55.097Z,100589.91
2022-10-24T11:32:15.857Z,100581.75
2022-10-24T11:37:26.246Z,100574.03
2022-10-24T11:42:41.391Z,100572.50
2022-10-24T11:47:52.214Z,100574.84
2022-10-24T11:52:58.981Z,100572.88
2022-10-24T11:58:03.459Z,100571.00
2022-10-24T12:03:37.778Z,100573.91
2022-10-24T12:09:05.339Z,100561.84
2022-10-24T12:14:35.940Z,100550.50
2022-10-24T12:19:41.092Z,100544.28
2022-10-24T12:24:44.265Z,100526.75
2022-10-24T12:30:02.091Z,100522.53
2022-10-24T12:35:30.473Z,100531.75
2022-10-24T12:40:54.075Z,100534.59
2022-10-24T12:45:58.561Z,100533.59
2022-10-24T12:51:04.612Z,100533.53
2022-10-24T13:01:31.236Z,100515.53
2022-10-24T13:06:46.859Z,100512.94
2022-10-24T13:12:06.379Z,100514.81
2022-10-24T13:17:18.713Z,100507.97
2022-10-24T13:22:29.532Z,100507.38
2022-10-24T13:27:32.209Z,100506.31
2022-10-24T13:32:35.587Z,100511.16
2022-10-24T13:37:43.345Z,100517.69
2022-10-24T13:42:52.261Z,100529.25
2022-10-24T13:47:59.796Z,100535.09
2022-10-24T13:53:12.464Z,100536.50
2022-10-24T13:58:19.231Z,100541.16
2022-10-24T14:03:25.447Z,100548.44
2022-10-24T14:08:31.642Z,100549.63
2022-10-24T14:13:38.320Z,100540.44
2022-10-24T14:18:42.412Z,100539.34
2022-10-24T14:23:54.843Z,100541.91
2022-10-24T14:28:59.916Z,100544.88
2022-10-24T14:34:06.297Z,100564.75
2022-10-24T14:39:15.524Z,100568.78
2022-10-24T14:44:19.820Z,100571.25
2022-10-24T14:49:30.330Z,100557.31
2022-10-24T14:54:33.787Z,100555.72
2022-10-24T14:59:38.495Z,100560.81
2022-10-24T15:04:44.344Z,100564.38
2022-10-24T15:09:55.365Z,100563.59
2022-10-24T15:15:00.721Z,100562.94
2022-10-24T15:20:06.059Z,100562.47
2022-10-24T15:25:19.089Z,100561.38
2022-10-24T15:30:22.666Z,100557.47
2022-10-24T15:35:27.075Z,100559.00
2022-10-24T15:40:33.390Z,100556.22
2022-10-24T15:45:37.203Z,100562.56
2022-10-24T15:50:44.254Z,100575.75
2022-10-24T15:55:46.753Z,100576.53
2022-10-24T16:00:49.172Z,100580.28
2022-10-24T16:05:54.951Z,100584.44
2022-10-24T16:10:57.329Z,100582.94
2022-10-24T16:15:59.565Z,100588.69
2022-10-24T16:21:04.351Z,100588.63
2022-10-24T16:26:06.497Z,100599.50
2022-10-24T16:31:09.355Z,100596.25
2022-10-24T16:36:12.961Z,100594.50
2022-10-24T16:41:15.951Z,100594.50
2022-10-24T16:46:20.781Z,100604.25
2022-10-24T16:51:26.998Z,100618.00
2022-10-24T16:56:30.011Z,100612.97
2022-10-24T17:01:32.529Z,100610.63
2022-10-24T17:06:36.389Z,100611.00
2022-10-24T17:11:46.501Z,100617.41
2022-10-24T17:16:55.424Z,100603.56
2022-10-24T17:22:23.254Z,100602.91
2022-10-24T17:27:30.736Z,100606.59
2022-10-24T17:32:37.023Z,100610.94
2022-10-24T17:37:50.019Z,100619.91
2022-10-24T17:42:52.715Z,100630.44
2022-10-24T17:47:54.845Z,100630.75
2022-10-24T17:52:58.355Z,100628.34
2022-10-24T17:58:00.428Z,100627.75
2022-10-24T18:03:02.510Z,100631.47
2022-10-24T18:08:07.157Z,100640.22
2022-10-24T18:13:09.665Z,100637.81
2022-10-24T18:18:12.031Z,100641.50
2022-10-24T18:23:15.475Z,100638.63
2022-10-24T18:28:17.215Z,100660.22
2022-10-24T18:33:19.109Z,100641.22
2022-10-24T18:38:22.158Z,100649.13
2022-10-24T18:43:24.084Z,100653.50
2022-10-24T18:48:26.842Z,100651.09
2022-10-24T18:53:41.593Z,100651.88
2022-10-24T18:58:43.950Z,100652.22
2022-10-24T19:03:46.757Z,100652.22
2022-10-24T19:08:50.564Z,100656.59
2022-10-24T19:13:52.690Z,100656.59
2022-10-24T19:18:57.583Z,100661.97
2022-10-24T19:24:01.306Z,100662.41
2022-10-24T19:29:05.768Z,100661.69
2022-10-24T19:34:09.334Z,100659.41
2022-10-24T19:39:12.795Z,100656.78
2022-10-24T19:44:15.640Z,100657.84
2022-10-24T19:49:18.196Z,100649.91
2022-10-24T19:54:21.335Z,100647.84
2022-10-24T19:59:23.642Z,100656.94
2022-10-24T20:04:25.975Z,100660.81
2022-10-24T20:09:29.308Z,100665.19
2022-10-24T20:14:30.997Z,100667.22
2022-10-24T20:19:32.709Z,100672.59
2022-10-24T20:24:35.930Z,100673.19
2022-10-24T20:29:37.630Z,100681.84
2022-10-24T20:34:39.697Z,100683.78
2022-10-24T20:39:42.724Z,100679.72
2022-10-24T20:44:44.602Z,100683.66
2022-10-24T20:49:46.302Z,100705.78
2022-10-24T20:54:49.585Z,100704.38
2022-10-24T20:59:51.299Z,100714.38
2022-10-24T21:04:52.984Z,100714.56
2022-10-24T21:09:56.080Z,100715.81
2022-10-24T21:14:57.867Z,100714.22
2022-10-24T21:19:59.568Z,100721.47
2022-10-24T21:25:03.004Z,100714.22
2022-10-24T21:30:07.977Z,100728.63
2022-10-24T21:35:11.802Z,100725.41
2022-10-24T21:40:14.908Z,100730.13
2022-10-24T21:45:16.773Z,100723.81
2022-10-24T21:50:18.683Z,100735.59
2022-10-24T21:55:21.795Z,100730.47
2022-10-24T22:00:23.570Z,100729.53
2022-10-24T22:05:25.400Z,100742.13
2022-10-24T22:10:28.397Z,100745.88
2022-10-24T22:15:30.112Z,100746.06
2022-10-24T22:20:32.228Z,100757.03
2022-10-24T22:25:35.351Z,100764.28
2022-10-24T22:30:37.817Z,100757.47
2022-10-24T22:35:40.237Z,100764.78
2022-10-24T22:40:43.930Z,100768.50
2022-10-24T22:45:55.697Z,100772.38
2022-10-24T22:50:57.673Z,100770.78
2022-10-24T22:56:12.662Z,100775.38
2022-10-24T23:01:28.835Z,100775.53
2022-10-24T23:06:39.964Z,100774.66
2022-10-24T23:11:43.724Z,100780.31
2022-10-24T23:16:50.841Z,100785.94
2022-10-24T23:21:56.236Z,100786.03
2022-10-24T23:27:20.696Z,100781.19
2022-10-24T23:32:24.581Z,100792.84
2022-10-24T23:37:32.955Z,100797.41
2022-10-24T23:42:36.744Z,100806.47
2022-10-24T23:47:51.311Z,100815.56
2022-10-24T23:53:14.076Z,100808.47
2022-10-24T23:58:18.004Z,100808.50
